sensor_id;sensor_type;location;lat;lon;timestamp;P1;durP1;ratioP1;P2;durP2;ratioP2
7647;SDS011;3866;48.020;11.720;2023-01-20T00:01:19;8.53;;;6.23;;
7647;SDS011;3866;48.020;11.720;2023-01-20T00:03:46;10.97;;;6.83;;
7647;SDS011;3866;48.020;11.720;2023-01-20T00:06:14;7.87;;;5.90;;
7647;SDS011;3866;48.020;11.720;2023-01-20T00:08:41;8.40;;;5.70;;
7647;SDS011;3866;48.020;11.720;2023-01-20T00:11:09;12.00;;;6.47;;
7647;SDS011;3866;48.020;11.720;2023-01-20T00:13:38;6.63;;;5.60;;
7647;SDS011;3866;48.020;11.720;2023-01-20T00:16:05;9.40;;;5.50;;
7647;SDS011;3866;48.020;11.720;2023-01-20T00:18:34;7.77;;;5.60;;
7647;SDS011;3866;48.020;11.720;2023-01-20T00:21:02;11.23;;;5.73;;
7647;SDS011;3866;48.020;11.720;2023-01-20T00:23:31;9.37;;;5.80;;
7647;SDS011;3866;48.020;11.720;2023-01-20T00:26:02;8.20;;;5.83;;
7647;SDS011;3866;48.020;11.720;2023-01-20T00:28:30;8.17;;;5.27;;
7647;SDS011;3866;48.020;11.720;2023-01-20T00:30:57;7.93;;;5.43;;
7647;SDS011;3866;48.020;11.720;2023-01-20T00:33:24;6.30;;;5.13;;
7647;SDS011;3866;48.020;11.720;2023-01-20T00:35:51;8.33;;;5.50;;
7647;SDS011;3866;48.020;11.720;2023-01-20T00:38:17;8.63;;;5.50;;
7647;SDS011;3866;48.020;11.720;2023-01-20T00:40:53;7.17;;;4.57;;
7647;SDS011;3866;48.020;11.720;2023-01-20T00:43:20;5.83;;;5.10;;
7647;SDS011;3866;48.020;11.720;2023-01-20T00:45:47;6.50;;;4.80;;
7647;SDS011;3866;48.020;11.720;2023-01-20T00:48:14;5.73;;;4.57;;
7647;SDS011;3866;48.020;11.720;2023-01-20T00:50:41;6.97;;;5.17;;
7647;SDS011;3866;48.020;11.720;2023-01-20T00:53:08;6.63;;;4.57;;
7647;SDS011;3866;48.020;11.720;2023-01-20T00:55:35;5.90;;;4.60;;
7647;SDS011;3866;48.020;11.720;2023-01-20T00:58:04;6.60;;;4.40;;
7647;SDS011;3866;48.020;11.720;2023-01-20T01:00:31;5.87;;;4.67;;
7647;SDS011;3866;48.020;11.720;2023-01-20T01:02:57;5.80;;;4.63;;
7647;SDS011;3866;48.020;11.720;2023-01-20T01:05:25;7.57;;;5.00;;
7647;SDS011;3866;48.020;11.720;2023-01-20T01:07:52;7.03;;;4.33;;
7647;SDS011;3866;48.020;11.720;2023-01-20T01:10:19;7.07;;;4.90;;
7647;SDS011;3866;48.020;11.720;2023-01-20T01:12:46;7.30;;;4.80;;
7647;SDS011;3866;48.020;11.720;2023-01-20T01:15:14;5.17;;;4.40;;
7647;SDS011;3866;48.020;11.720;2023-01-20T01:17:41;5.00;;;4.07;;
7647;SDS011;3866;48.020;11.720;2023-01-20T01:20:12;6.83;;;4.40;;
7647;SDS011;3866;48.020;11.720;2023-01-20T01:22:39;6.83;;;4.90;;
7647;SDS011;3866;48.020;11.720;2023-01-20T01:25:06;6.03;;;4.63;;
7647;SDS011;3866;48.020;11.720;2023-01-20T01:27:33;9.37;;;5.33;;
7647;SDS011;3866;48.020;11.720;2023-01-20T01:30:01;5.80;;;4.70;;
7647;SDS011;3866;48.020;11.720;2023-01-20T01:32:29;6.43;;;4.90;;
7647;SDS011;3866;48.020;11.720;2023-01-20T01:34:56;7.47;;;4.93;;
7647;SDS011;3866;48.020;11.720;2023-01-20T01:37:23;6.13;;;4.87;;
7647;SDS011;3866;48.020;11.720;2023-01-20T01:39:50;5.57;;;4.70;;
7647;SDS011;3866;48.020;11.720;2023-01-20T01:42:18;5.87;;;4.30;;
7647;SDS011;3866;48.020;11.720;2023-01-20T01:47:50;7.63;;;5.30;;
7647;SDS011;3866;48.020;11.720;2023-01-20T01:50:22;6.30;;;4.50;;
7647;SDS011;3866;48.020;11.720;2023-01-20T01:52:52;6.77;;;4.67;;
7647;SDS011;3866;48.020;11.720;2023-01-20T01:55:21;8.07;;;4.93;;
7647;SDS011;3866;48.020;11.720;2023-01-20T01:57:50;6.50;;;4.57;;
7647;SDS011;3866;48.020;11.720;2023-01-20T02:00:18;6.57;;;5.10;;
7647;SDS011;3866;48.020;11.720;2023-01-20T02:02:45;4.87;;;4.00;;
7647;SDS011;3866;48.020;11.720;2023-01-20T02:05:14;5.70;;;4.33;;
7647;SDS011;3866;48.020;11.720;2023-01-20T02:07:43;5.57;;;5.03;;
7647;SDS011;3866;48.020;11.720;2023-01-20T02:10:13;6.53;;;4.27;;
7647;SDS011;3866;48.020;11.720;2023-01-20T02:12:40;5.97;;;4.80;;
7647;SDS011;3866;48.020;11.720;2023-01-20T02:15:11;5.20;;;4.33;;
7647;SDS011;3866;48.020;11.720;2023-01-20T02:17:40;7.43;;;5.13;;
7647;SDS011;3866;48.020;11.720;2023-01-20T02:20:29;6.87;;;4.97;;
7647;SDS011;3866;48.020;11.720;2023-01-20T02:23:02;5.10;;;4.00;;
7647;SDS011;3866;48.020;11.720;2023-01-20T02:25:53;5.37;;;3.73;;
7647;SDS011;3866;48.020;11.720;2023-01-20T02:32:00;7.40;;;4.40;;
7647;SDS011;3866;48.020;11.720;2023-01-20T02:34:35;5.23;;;4.40;;
7647;SDS011;3866;48.020;11.720;2023-01-20T02:37:09;5.30;;;4.40;;
7647;SDS011;3866;48.020;11.720;2023-01-20T02:39:40;8.73;;;5.50;;
7647;SDS011;3866;48.020;11.720;2023-01-20T02:42:13;7.73;;;5.30;;
7647;SDS011;3866;48.020;11.720;2023-01-20T02:44:45;7.00;;;4.83;;
7647;SDS011;3866;48.020;11.720;2023-01-20T02:47:22;8.37;;;5.27;;
7647;SDS011;3866;48.020;11.720;2023-01-20T02:49:56;9.07;;;5.77;;
7647;SDS011;3866;48.020;11.720;2023-01-20T02:52:29;7.50;;;5.07;;
7647;SDS011;3866;48.020;11.720;2023-01-20T02:54:58;7.80;;;4.90;;
7647;SDS011;3866;48.020;11.720;2023-01-20T02:57:31;5.97;;;4.67;;
7647;SDS011;3866;48.020;11.720;2023-01-20T03:00:06;7.20;;;4.57;;
7647;SDS011;3866;48.020;11.720;2023-01-20T03:02:39;5.33;;;4.67;;
7647;SDS011;3866;48.020;11.720;2023-01-20T03:05:08;6.10;;;4.47;;
7647;SDS011;3866;48.020;11.720;2023-01-20T03:07:39;5.57;;;4.33;;
7647;SDS011;3866;48.020;11.720;2023-01-20T03:10:09;6.57;;;4.13;;
7647;SDS011;3866;48.020;11.720;2023-01-20T03:12:41;6.43;;;4.03;;
7647;SDS011;3866;48.020;11.720;2023-01-20T03:15:11;4.97;;;4.30;;
7647;SDS011;3866;48.020;11.720;2023-01-20T03:17:40;3.90;;;3.50;;
7647;SDS011;3866;48.020;11.720;2023-01-20T03:20:08;6.67;;;4.47;;
7647;SDS011;3866;48.020;11.720;2023-01-20T03:22:35;5.30;;;3.90;;
7647;SDS011;3866;48.020;11.720;2023-01-20T03:25:03;5.10;;;3.97;;
7647;SDS011;3866;48.020;11.720;2023-01-20T03:27:31;5.13;;;3.57;;
7647;SDS011;3866;48.020;11.720;2023-01-20T03:29:58;6.87;;;4.43;;
7647;SDS011;3866;48.020;11.720;2023-01-20T03:32:25;5.27;;;3.70;;
7647;SDS011;3866;48.020;11.720;2023-01-20T03:34:55;4.93;;;3.70;;
7647;SDS011;3866;48.020;11.720;2023-01-20T03:37:23;5.30;;;3.80;;
7647;SDS011;3866;48.020;11.720;2023-01-20T03:39:50;4.67;;;2.97;;
7647;SDS011;3866;48.020;11.720;2023-01-20T03:42:19;5.07;;;3.37;;
7647;SDS011;3866;48.020;11.720;2023-01-20T03:44:56;3.87;;;3.00;;
7647;SDS011;3866;48.020;11.720;2023-01-20T03:47:32;6.20;;;3.37;;
7647;SDS011;3866;48.020;11.720;2023-01-20T03:50:16;3.83;;;3.03;;
7647;SDS011;3866;48.020;11.720;2023-01-20T03:52:56;3.73;;;2.70;;
7647;SDS011;3866;48.020;11.720;2023-01-20T03:55:30;16.07;;;8.70;;
7647;SDS011;3866;48.020;11.720;2023-01-20T03:58:01;5.60;;;2.90;;
7647;SDS011;3866;48.020;11.720;2023-01-20T04:00:31;4.07;;;2.50;;
7647;SDS011;3866;48.020;11.720;2023-01-20T04:03:03;4.00;;;2.90;;
7647;SDS011;3866;48.020;11.720;2023-01-20T04:05:34;3.43;;;2.77;;
7647;SDS011;3866;48.020;11.720;2023-01-20T04:08:02;4.87;;;2.50;;
7647;SDS011;3866;48.020;11.720;2023-01-20T04:10:33;5.77;;;2.70;;
7647;SDS011;3866;48.020;11.720;2023-01-20T04:13:03;3.23;;;2.93;;
7647;SDS011;3866;48.020;11.720;2023-01-20T04:15:31;3.10;;;2.70;;
7647;SDS011;3866;48.020;11.720;2023-01-20T04:18:09;3.27;;;2.40;;
7647;SDS011;3866;48.020;11.720;2023-01-20T04:20:41;4.20;;;2.40;;
7647;SDS011;3866;48.020;11.720;2023-01-20T04:23:11;5.37;;;2.77;;
7647;SDS011;3866;48.020;11.720;2023-01-20T04:25:46;5.00;;;3.03;;
7647;SDS011;3866;48.020;11.720;2023-01-20T04:28:13;5.37;;;3.53;;
7647;SDS011;3866;48.020;11.720;2023-01-20T04:30:40;3.93;;;2.60;;
7647;SDS011;3866;48.020;11.720;2023-01-20T04:33:06;3.13;;;2.80;;
7647;SDS011;3866;48.020;11.720;2023-01-20T04:35:33;3.73;;;2.50;;
7647;SDS011;3866;48.020;11.720;2023-01-20T04:38:02;7.23;;;3.13;;
7647;SDS011;3866;48.020;11.720;2023-01-20T04:40:29;2.97;;;2.27;;
7647;SDS011;3866;48.020;11.720;2023-01-20T04:42:56;3.17;;;2.60;;
7647;SDS011;3866;48.020;11.720;2023-01-20T04:45:22;2.10;;;1.90;;
7647;SDS011;3866;48.020;11.720;2023-01-20T04:47:49;2.43;;;2.20;;
7647;SDS011;3866;48.020;11.720;2023-01-20T04:50:16;3.20;;;2.73;;
7647;SDS011;3866;48.020;11.720;2023-01-20T04:52:43;3.57;;;2.60;;
7647;SDS011;3866;48.020;11.720;2023-01-20T04:55:12;6.47;;;3.07;;
7647;SDS011;3866;48.020;11.720;2023-01-20T04:57:38;8.43;;;4.20;;
7647;SDS011;3866;48.020;11.720;2023-01-20T05:00:06;7.93;;;4.47;;
7647;SDS011;3866;48.020;11.720;2023-01-20T05:02:33;4.40;;;3.33;;
7647;SDS011;3866;48.020;11.720;2023-01-20T05:05:00;5.03;;;2.83;;
7647;SDS011;3866;48.020;11.720;2023-01-20T05:07:27;3.47;;;2.67;;
7647;SDS011;3866;48.020;11.720;2023-01-20T05:09:54;2.80;;;2.47;;
7647;SDS011;3866;48.020;11.720;2023-01-20T05:12:22;56.03;;;28.13;;
7647;SDS011;3866;48.020;11.720;2023-01-20T05:14:49;7.23;;;3.23;;
7647;SDS011;3866;48.020;11.720;2023-01-20T05:17:16;4.00;;;2.40;;
7647;SDS011;3866;48.020;11.720;2023-01-20T05:19:45;8.63;;;2.67;;
7647;SDS011;3866;48.020;11.720;2023-01-20T05:22:12;3.97;;;2.70;;
7647;SDS011;3866;48.020;11.720;2023-01-20T05:24:39;3.03;;;2.73;;
7647;SDS011;3866;48.020;11.720;2023-01-20T05:27:05;4.60;;;2.83;;
7647;SDS011;3866;48.020;11.720;2023-01-20T05:29:34;5.87;;;3.30;;
7647;SDS011;3866;48.020;11.720;2023-01-20T05:32:01;6.87;;;3.30;;
7647;SDS011;3866;48.020;11.720;2023-01-20T05:34:27;8.00;;;4.50;;
7647;SDS011;3866;48.020;11.720;2023-01-20T05:36:54;8.70;;;5.10;;
7647;SDS011;3866;48.020;11.720;2023-01-20T05:39:21;5.80;;;3.53;;
7647;SDS011;3866;48.020;11.720;2023-01-20T05:41:48;6.70;;;2.97;;
7647;SDS011;3866;48.020;11.720;2023-01-20T05:44:15;5.77;;;3.67;;
7647;SDS011;3866;48.020;11.720;2023-01-20T05:46:44;5.90;;;3.10;;
7647;SDS011;3866;48.020;11.720;2023-01-20T05:49:10;3.20;;;2.90;;
7647;SDS011;3866;48.020;11.720;2023-01-20T05:51:38;5.63;;;3.80;;
7647;SDS011;3866;48.020;11.720;2023-01-20T05:54:05;3.80;;;3.20;;
7647;SDS011;3866;48.020;11.720;2023-01-20T05:56:32;6.93;;;3.50;;
7647;SDS011;3866;48.020;11.720;2023-01-20T05:58:59;4.77;;;3.57;;
7647;SDS011;3866;48.020;11.720;2023-01-20T06:01:25;4.40;;;3.50;;
7647;SDS011;3866;48.020;11.720;2023-01-20T06:03:54;5.20;;;3.73;;
7647;SDS011;3866;48.020;11.720;2023-01-20T06:06:21;4.73;;;2.97;;
7647;SDS011;3866;48.020;11.720;2023-01-20T06:08:50;9.80;;;4.93;;
7647;SDS011;3866;48.020;11.720;2023-01-20T06:11:17;8.80;;;3.93;;
7647;SDS011;3866;48.020;11.720;2023-01-20T06:13:45;3.87;;;3.50;;
7647;SDS011;3866;48.020;11.720;2023-01-20T06:16:12;5.67;;;3.30;;
7647;SDS011;3866;48.020;11.720;2023-01-20T06:18:41;5.87;;;3.53;;
7647;SDS011;3866;48.020;11.720;2023-01-20T06:21:09;6.37;;;3.43;;
7647;SDS011;3866;48.020;11.720;2023-01-20T06:23:36;4.00;;;2.93;;
7647;SDS011;3866;48.020;11.720;2023-01-20T06:26:04;4.20;;;3.03;;
7647;SDS011;3866;48.020;11.720;2023-01-20T06:28:32;3.03;;;2.80;;
7647;SDS011;3866;48.020;11.720;2023-01-20T06:31:00;3.63;;;3.07;;
7647;SDS011;3866;48.020;11.720;2023-01-20T06:33:28;5.83;;;3.43;;
7647;SDS011;3866;48.020;11.720;2023-01-20T06:35:55;6.57;;;3.77;;
7647;SDS011;3866;48.020;11.720;2023-01-20T06:38:24;5.50;;;3.33;;
7647;SDS011;3866;48.020;11.720;2023-01-20T06:40:55;4.60;;;3.13;;
7647;SDS011;3866;48.020;11.720;2023-01-20T06:43:22;5.43;;;3.43;;
7647;SDS011;3866;48.020;11.720;2023-01-20T06:45:49;5.73;;;3.67;;
7647;SDS011;3866;48.020;11.720;2023-01-20T06:48:16;5.40;;;3.93;;
7647;SDS011;3866;48.020;11.720;2023-01-20T06:50:43;7.30;;;4.83;;
7647;SDS011;3866;48.020;11.720;2023-01-20T06:53:10;6.03;;;4.00;;
7647;SDS011;3866;48.020;11.720;2023-01-20T06:55:39;5.60;;;4.37;;
7647;SDS011;3866;48.020;11.720;2023-01-20T06:58:06;6.00;;;3.83;;
7647;SDS011;3866;48.020;11.720;2023-01-20T07:00:32;6.50;;;4.57;;
7647;SDS011;3866;48.020;11.720;2023-01-20T07:02:59;7.33;;;4.73;;
7647;SDS011;3866;48.020;11.720;2023-01-20T07:05:26;4.83;;;4.20;;
7647;SDS011;3866;48.020;11.720;2023-01-20T07:07:53;7.13;;;5.03;;
7647;SDS011;3866;48.020;11.720;2023-01-20T07:10:20;5.97;;;4.40;;
7647;SDS011;3866;48.020;11.720;2023-01-20T07:12:49;6.50;;;4.90;;
7647;SDS011;3866;48.020;11.720;2023-01-20T07:15:16;6.03;;;4.87;;
7647;SDS011;3866;48.020;11.720;2023-01-20T07:17:42;6.30;;;4.67;;
7647;SDS011;3866;48.020;11.720;2023-01-20T07:20:10;6.97;;;4.70;;
7647;SDS011;3866;48.020;11.720;2023-01-20T07:22:37;5.20;;;4.17;;
7647;SDS011;3866;48.020;11.720;2023-01-20T07:25:04;5.70;;;4.07;;
7647;SDS011;3866;48.020;11.720;2023-01-20T07:27:32;5.30;;;4.60;;
7647;SDS011;3866;48.020;11.720;2023-01-20T07:30:00;6.67;;;4.40;;
7647;SDS011;3866;48.020;11.720;2023-01-20T07:32:30;7.30;;;4.30;;
7647;SDS011;3866;48.020;11.720;2023-01-20T07:34:57;7.20;;;4.97;;
7647;SDS011;3866;48.020;11.720;2023-01-20T07:37:24;7.40;;;5.20;;
7647;SDS011;3866;48.020;11.720;2023-01-20T07:39:51;10.17;;;6.40;;
7647;SDS011;3866;48.020;11.720;2023-01-20T07:42:18;10.93;;;6.27;;
7647;SDS011;3866;48.020;11.720;2023-01-20T07:44:45;11.00;;;6.43;;
7647;SDS011;3866;48.020;11.720;2023-01-20T07:47:13;12.53;;;7.10;;
7647;SDS011;3866;48.020;11.720;2023-01-20T07:49:40;9.33;;;6.00;;
7647;SDS011;3866;48.020;11.720;2023-01-20T07:52:07;10.77;;;6.73;;
7647;SDS011;3866;48.020;11.720;2023-01-20T07:54:34;12.43;;;7.43;;
7647;SDS011;3866;48.020;11.720;2023-01-20T07:57:00;12.43;;;8.27;;
7647;SDS011;3866;48.020;11.720;2023-01-20T07:59:27;12.53;;;8.17;;
7647;SDS011;3866;48.020;11.720;2023-01-20T08:01:54;14.57;;;8.37;;
7647;SDS011;3866;48.020;11.720;2023-01-20T08:04:23;13.53;;;7.63;;
7647;SDS011;3866;48.020;11.720;2023-01-20T08:06:49;9.13;;;6.07;;
7647;SDS011;3866;48.020;11.720;2023-01-20T08:09:16;7.03;;;5.77;;
7647;SDS011;3866;48.020;11.720;2023-01-20T08:11:43;9.83;;;6.07;;
7647;SDS011;3866;48.020;11.720;2023-01-20T08:14:10;7.80;;;6.20;;
7647;SDS011;3866;48.020;11.720;2023-01-20T08:16:37;6.20;;;5.50;;
7647;SDS011;3866;48.020;11.720;2023-01-20T08:19:04;8.10;;;5.50;;
7647;SDS011;3866;48.020;11.720;2023-01-20T08:21:33;8.90;;;6.43;;
7647;SDS011;3866;48.020;11.720;2023-01-20T08:24:00;8.60;;;6.30;;
7647;SDS011;3866;48.020;11.720;2023-01-20T08:26:30;10.27;;;6.73;;
7647;SDS011;3866;48.020;11.720;2023-01-20T08:29:00;10.00;;;6.83;;
7647;SDS011;3866;48.020;11.720;2023-01-20T08:31:28;8.60;;;6.97;;
7647;SDS011;3866;48.020;11.720;2023-01-20T08:33:56;11.07;;;7.37;;
7647;SDS011;3866;48.020;11.720;2023-01-20T08:36:23;11.60;;;7.60;;
7647;SDS011;3866;48.020;11.720;2023-01-20T08:38:54;9.03;;;6.60;;
7647;SDS011;3866;48.020;11.720;2023-01-20T08:41:23;9.57;;;7.10;;
7647;SDS011;3866;48.020;11.720;2023-01-20T08:43:51;8.20;;;6.30;;
7647;SDS011;3866;48.020;11.720;2023-01-20T08:46:19;7.53;;;6.57;;
7647;SDS011;3866;48.020;11.720;2023-01-20T08:48:47;8.77;;;7.23;;
7647;SDS011;3866;48.020;11.720;2023-01-20T08:51:15;8.17;;;6.80;;
7647;SDS011;3866;48.020;11.720;2023-01-20T08:53:44;11.20;;;7.50;;
7647;SDS011;3866;48.020;11.720;2023-01-20T08:56:12;9.73;;;7.07;;
7647;SDS011;3866;48.020;11.720;2023-01-20T08:58:40;10.37;;;7.70;;
7647;SDS011;3866;48.020;11.720;2023-01-20T09:01:07;8.47;;;7.40;;
7647;SDS011;3866;48.020;11.720;2023-01-20T09:03:35;12.00;;;7.60;;
7647;SDS011;3866;48.020;11.720;2023-01-20T09:06:04;8.87;;;7.70;;
7647;SDS011;3866;48.020;11.720;2023-01-20T09:08:31;8.80;;;7.10;;
7647;SDS011;3866;48.020;11.720;2023-01-20T09:11:02;6.50;;;5.60;;
7647;SDS011;3866;48.020;11.720;2023-01-20T09:13:31;11.40;;;6.80;;
7647;SDS011;3866;48.020;11.720;2023-01-20T09:15:59;9.43;;;6.80;;
7647;SDS011;3866;48.020;11.720;2023-01-20T09:18:26;9.73;;;6.53;;
7647;SDS011;3866;48.020;11.720;2023-01-20T09:20:53;8.53;;;6.93;;
7647;SDS011;3866;48.020;11.720;2023-01-20T09:23:22;8.03;;;6.83;;
7647;SDS011;3866;48.020;11.720;2023-01-20T09:25:48;8.83;;;6.90;;
7647;SDS011;3866;48.020;11.720;2023-01-20T09:28:15;10.87;;;8.63;;
7647;SDS011;3866;48.020;11.720;2023-01-20T09:30:44;11.00;;;8.20;;
7647;SDS011;3866;48.020;11.720;2023-01-20T09:33:11;12.33;;;7.40;;
7647;SDS011;3866;48.020;11.720;2023-01-20T09:35:38;9.20;;;7.07;;
7647;SDS011;3866;48.020;11.720;2023-01-20T09:38:05;8.10;;;6.50;;
7647;SDS011;3866;48.020;11.720;2023-01-20T09:40:52;8.13;;;6.80;;
7647;SDS011;3866;48.020;11.720;2023-01-20T09:43:47;9.80;;;6.83;;
7647;SDS011;3866;48.020;11.720;2023-01-20T09:46:26;7.43;;;6.60;;
7647;SDS011;3866;48.020;11.720;2023-01-20T09:49:03;9.70;;;7.73;;
7647;SDS011;3866;48.020;11.720;2023-01-20T09:52:01;11.70;;;7.03;;
7647;SDS011;3866;48.020;11.720;2023-01-20T09:54:53;10.53;;;7.40;;
7647;SDS011;3866;48.020;11.720;2023-01-20T09:57:23;9.43;;;7.17;;
7647;SDS011;3866;48.020;11.720;2023-01-20T09:59:58;7.93;;;6.00;;
7647;SDS011;3866;48.020;11.720;2023-01-20T10:02:33;9.80;;;6.13;;
7647;SDS011;3866;48.020;11.720;2023-01-20T10:05:04;7.77;;;6.40;;
7647;SDS011;3866;48.020;11.720;2023-01-20T10:07:38;7.33;;;6.27;;
7647;SDS011;3866;48.020;11.720;2023-01-20T10:10:13;9.10;;;6.77;;
7647;SDS011;3866;48.020;11.720;2023-01-20T10:12:46;9.00;;;7.40;;
7647;SDS011;3866;48.020;11.720;2023-01-20T10:15:19;8.97;;;6.17;;
7647;SDS011;3866;48.020;11.720;2023-01-20T10:17:52;9.30;;;6.40;;
7647;SDS011;3866;48.020;11.720;2023-01-20T10:20:25;10.10;;;7.30;;
7647;SDS011;3866;48.020;11.720;2023-01-20T10:22:56;9.53;;;6.40;;
7647;SDS011;3866;48.020;11.720;2023-01-20T10:25:27;7.07;;;5.37;;
7647;SDS011;3866;48.020;11.720;2023-01-20T10:28:02;8.63;;;7.67;;
7647;SDS011;3866;48.020;11.720;2023-01-20T10:30:35;7.80;;;6.50;;
7647;SDS011;3866;48.020;11.720;2023-01-20T10:33:04;6.37;;;5.30;;
7647;SDS011;3866;48.020;11.720;2023-01-20T10:35:35;6.83;;;5.67;;
7647;SDS011;3866;48.020;11.720;2023-01-20T10:38:05;7.73;;;6.10;;
7647;SDS011;3866;48.020;11.720;2023-01-20T10:40:36;6.60;;;5.93;;
7647;SDS011;3866;48.020;11.720;2023-01-20T10:43:09;6.77;;;5.47;;
7647;SDS011;3866;48.020;11.720;2023-01-20T10:45:41;6.60;;;5.53;;
7647;SDS011;3866;48.020;11.720;2023-01-20T10:48:23;6.27;;;5.17;;
7647;SDS011;3866;48.020;11.720;2023-01-20T10:51:03;9.23;;;6.33;;
7647;SDS011;3866;48.020;11.720;2023-01-20T10:53:41;9.47;;;7.00;;
7647;SDS011;3866;48.020;11.720;2023-01-20T10:56:22;9.20;;;6.43;;
7647;SDS011;3866;48.020;11.720;2023-01-20T10:58:59;10.57;;;7.53;;
7647;SDS011;3866;48.020;11.720;2023-01-20T11:01:32;7.60;;;6.23;;
7647;SDS011;3866;48.020;11.720;2023-01-20T11:04:02;6.13;;;5.50;;
7647;SDS011;3866;48.020;11.720;2023-01-20T11:06:29;5.97;;;4.83;;
7647;SDS011;3866;48.020;11.720;2023-01-20T11:08:58;7.27;;;5.03;;
7647;SDS011;3866;48.020;11.720;2023-01-20T11:11:42;5.83;;;5.20;;
7647;SDS011;3866;48.020;11.720;2023-01-20T11:14:09;3.90;;;3.60;;
7647;SDS011;3866;48.020;11.720;2023-01-20T11:16:36;6.53;;;4.87;;
7647;SDS011;3866;48.020;11.720;2023-01-20T11:19:07;10.70;;;7.57;;
7647;SDS011;3866;48.020;11.720;2023-01-20T11:21:35;11.23;;;6.80;;
7647;SDS011;3866;48.020;11.720;2023-01-20T11:24:26;7.83;;;5.87;;
7647;SDS011;3866;48.020;11.720;2023-01-20T11:27:06;6.23;;;5.17;;
7647;SDS011;3866;48.020;11.720;2023-01-20T11:29:39;7.70;;;4.83;;
7647;SDS011;3866;48.020;11.720;2023-01-20T11:32:23;8.87;;;6.53;;
7647;SDS011;3866;48.020;11.720;2023-01-20T11:34:53;8.40;;;6.70;;
7647;SDS011;3866;48.020;11.720;2023-01-20T11:37:21;7.20;;;4.70;;
7647;SDS011;3866;48.020;11.720;2023-01-20T11:39:58;6.27;;;5.13;;
7647;SDS011;3866;48.020;11.720;2023-01-20T11:42:27;5.63;;;5.00;;
7647;SDS011;3866;48.020;11.720;2023-01-20T11:44:56;5.97;;;5.37;;
7647;SDS011;3866;48.020;11.720;2023-01-20T11:47:25;8.70;;;5.27;;
7647;SDS011;3866;48.020;11.720;2023-01-20T11:50:07;7.70;;;6.07;;
7647;SDS011;3866;48.020;11.720;2023-01-20T11:52:48;5.90;;;4.50;;
7647;SDS011;3866;48.020;11.720;2023-01-20T11:55:15;7.43;;;4.87;;
7647;SDS011;3866;48.020;11.720;2023-01-20T11:57:46;5.07;;;4.30;;
7647;SDS011;3866;48.020;11.720;2023-01-20T12:00:30;4.43;;;4.03;;
7647;SDS011;3866;48.020;11.720;2023-01-20T12:03:12;3.97;;;3.57;;
7647;SDS011;3866;48.020;11.720;2023-01-20T12:05:54;4.37;;;3.97;;
7647;SDS011;3866;48.020;11.720;2023-01-20T12:08:25;4.67;;;4.13;;
7647;SDS011;3866;48.020;11.720;2023-01-20T12:10:57;4.73;;;3.60;;
7647;SDS011;3866;48.020;11.720;2023-01-20T12:13:26;4.00;;;3.60;;
7647;SDS011;3866;48.020;11.720;2023-01-20T12:16:19;4.23;;;3.40;;
7647;SDS011;3866;48.020;11.720;2023-01-20T12:18:48;4.37;;;3.63;;
7647;SDS011;3866;48.020;11.720;2023-01-20T12:21:21;4.63;;;3.23;;
7647;SDS011;3866;48.020;11.720;2023-01-20T12:23:54;2.70;;;2.50;;
7647;SDS011;3866;48.020;11.720;2023-01-20T12:26:25;3.30;;;3.00;;
7647;SDS011;3866;48.020;11.720;2023-01-20T12:28:55;4.27;;;3.03;;
7647;SDS011;3866;48.020;11.720;2023-01-20T12:31:26;4.10;;;3.13;;
7647;SDS011;3866;48.020;11.720;2023-01-20T12:33:57;4.50;;;3.27;;
7647;SDS011;3866;48.020;11.720;2023-01-20T12:36:35;4.70;;;3.97;;
7647;SDS011;3866;48.020;11.720;2023-01-20T12:42:26;5.63;;;3.90;;
7647;SDS011;3866;48.020;11.720;2023-01-20T12:45:15;4.17;;;3.77;;
7647;SDS011;3866;48.020;11.720;2023-01-20T12:47:55;5.47;;;4.70;;
7647;SDS011;3866;48.020;11.720;2023-01-20T12:50:32;6.23;;;4.33;;
7647;SDS011;3866;48.020;11.720;2023-01-20T12:53:16;5.57;;;4.00;;
7647;SDS011;3866;48.020;11.720;2023-01-20T12:55:55;5.80;;;4.20;;
7647;SDS011;3866;48.020;11.720;2023-01-20T12:58:32;6.50;;;5.30;;
7647;SDS011;3866;48.020;11.720;2023-01-20T13:01:13;7.13;;;4.50;;
7647;SDS011;3866;48.020;11.720;2023-01-20T13:03:58;4.50;;;4.00;;
7647;SDS011;3866;48.020;11.720;2023-01-20T13:06:43;8.13;;;5.33;;
7647;SDS011;3866;48.020;11.720;2023-01-20T13:09:29;6.13;;;4.53;;
7647;SDS011;3866;48.020;11.720;2023-01-20T13:12:10;6.47;;;4.80;;
7647;SDS011;3866;48.020;11.720;2023-01-20T13:14:54;5.50;;;4.23;;
7647;SDS011;3866;48.020;11.720;2023-01-20T13:17:29;6.43;;;4.80;;
7647;SDS011;3866;48.020;11.720;2023-01-20T13:20:04;7.30;;;4.93;;
7647;SDS011;3866;48.020;11.720;2023-01-20T13:22:43;11.40;;;6.30;;
7647;SDS011;3866;48.020;11.720;2023-01-20T13:25:12;8.17;;;6.13;;
7647;SDS011;3866;48.020;11.720;2023-01-20T13:27:43;8.73;;;5.30;;
7647;SDS011;3866;48.020;11.720;2023-01-20T13:33:04;7.57;;;4.93;;
7647;SDS011;3866;48.020;11.720;2023-01-20T13:35:40;7.67;;;5.00;;
7647;SDS011;3866;48.020;11.720;2023-01-20T13:38:17;5.90;;;5.00;;
7647;SDS011;3866;48.020;11.720;2023-01-20T13:40:51;9.13;;;4.90;;
7647;SDS011;3866;48.020;11.720;2023-01-20T13:49:12;11.07;;;6.97;;
7647;SDS011;3866;48.020;11.720;2023-01-20T13:51:47;11.93;;;6.87;;
7647;SDS011;3866;48.020;11.720;2023-01-20T14:00:11;10.70;;;7.00;;
7647;SDS011;3866;48.020;11.720;2023-01-20T14:02:42;9.53;;;7.50;;
7647;SDS011;3866;48.020;11.720;2023-01-20T14:08:13;11.07;;;8.33;;
7647;SDS011;3866;48.020;11.720;2023-01-20T14:10:40;13.17;;;9.13;;
7647;SDS011;3866;48.020;11.720;2023-01-20T14:13:10;14.40;;;9.93;;
7647;SDS011;3866;48.020;11.720;2023-01-20T14:15:38;12.93;;;9.07;;
7647;SDS011;3866;48.020;11.720;2023-01-20T14:18:15;10.30;;;8.17;;
7647;SDS011;3866;48.020;11.720;2023-01-20T14:20:54;10.17;;;8.73;;
7647;SDS011;3866;48.020;11.720;2023-01-20T14:23:29;11.40;;;8.00;;
7647;SDS011;3866;48.020;11.720;2023-01-20T14:25:59;11.77;;;8.27;;
7647;SDS011;3866;48.020;11.720;2023-01-20T14:28:30;14.40;;;8.90;;
7647;SDS011;3866;48.020;11.720;2023-01-20T14:34:01;10.77;;;8.13;;
7647;SDS011;3866;48.020;11.720;2023-01-20T14:36:42;11.87;;;9.40;;
7647;SDS011;3866;48.020;11.720;2023-01-20T14:39:12;14.23;;;10.10;;
7647;SDS011;3866;48.020;11.720;2023-01-20T14:41:45;14.10;;;10.63;;
7647;SDS011;3866;48.020;11.720;2023-01-20T14:44:16;13.17;;;10.30;;
7647;SDS011;3866;48.020;11.720;2023-01-20T14:46:45;14.63;;;11.07;;
7647;SDS011;3866;48.020;11.720;2023-01-20T14:49:14;12.60;;;10.37;;
7647;SDS011;3866;48.020;11.720;2023-01-20T14:51:42;14.23;;;11.67;;
7647;SDS011;3866;48.020;11.720;2023-01-20T15:02:43;15.00;;;11.17;;
7647;SDS011;3866;48.020;11.720;2023-01-20T15:05:18;14.33;;;10.60;;
7647;SDS011;3866;48.020;11.720;2023-01-20T15:07:47;16.40;;;11.17;;
7647;SDS011;3866;48.020;11.720;2023-01-20T15:10:14;16.93;;;12.13;;
7647;SDS011;3866;48.020;11.720;2023-01-20T15:12:52;14.07;;;10.53;;
7647;SDS011;3866;48.020;11.720;2023-01-20T15:15:23;13.93;;;10.83;;
7647;SDS011;3866;48.020;11.720;2023-01-20T15:20:49;16.97;;;13.60;;
7647;SDS011;3866;48.020;11.720;2023-01-20T15:23:19;19.83;;;14.20;;
7647;SDS011;3866;48.020;11.720;2023-01-20T15:25:47;19.03;;;13.63;;
7647;SDS011;3866;48.020;11.720;2023-01-20T15:28:22;15.83;;;12.33;;
7647;SDS011;3866;48.020;11.720;2023-01-20T15:30:52;16.43;;;12.97;;
7647;SDS011;3866;48.020;11.720;2023-01-20T15:33:22;16.87;;;11.70;;
7647;SDS011;3866;48.020;11.720;2023-01-20T15:35:51;14.33;;;10.90;;
7647;SDS011;3866;48.020;11.720;2023-01-20T15:38:19;16.63;;;11.43;;
7647;SDS011;3866;48.020;11.720;2023-01-20T15:40:46;14.50;;;10.27;;
7647;SDS011;3866;48.020;11.720;2023-01-20T15:43:14;14.13;;;10.43;;
7647;SDS011;3866;48.020;11.720;2023-01-20T15:45:41;15.27;;;10.90;;
7647;SDS011;3866;48.020;11.720;2023-01-20T15:48:12;16.77;;;9.87;;
7647;SDS011;3866;48.020;11.720;2023-01-20T15:50:42;16.23;;;11.20;;
7647;SDS011;3866;48.020;11.720;2023-01-20T15:53:09;17.13;;;11.63;;
7647;SDS011;3866;48.020;11.720;2023-01-20T15:55:38;19.10;;;12.47;;
7647;SDS011;3866;48.020;11.720;2023-01-20T15:58:18;19.40;;;11.93;;
7647;SDS011;3866;48.020;11.720;2023-01-20T16:00:52;14.77;;;11.60;;